Time;durP1;ratioP1;P1;durP2;ratioP2;P2;SDS_P1;SDS_P2;PMS_P1;PMS_P2;Temp;Humidity;BMP_temperature;BMP_pressure;BME280_temperature;BME280_humidity;BME280_pressure;Samples;Min_cycle;Max_cycle;Signal;HPM_P1;HPM_P2
2021/06/30 00:06:07;;;;;;;13.3;10;;;;;;;19.43;100;97728.84;;;;
2021/06/30 00:16:06;;;;;;;12.1;10;;;;;;;19.48;100;97744.84;;;;
2021/06/30 00:26:06;;;;;;;11.2;8.8;;;;;;;19.44;100;97747.57;;;;
2021/06/30 00:36:06;;;;;;;16.6;11.4;;;;;;;19.34;100;97884.13;;;;
2021/06/30 00:46:06;;;;;;;15.1;11.8;;;;;;;19.52;100;97906.91;;;;
2021/06/30 00:56:06;;;;;;;16.6;8.9;;;;;;;19.93;100;97918.42;;;;
2021/06/30 01:06:06;;;;;;;14.2;4.3;;;;;;;19.75;100;97953.89;;;;
2021/06/30 01:16:05;;;;;;;4.8;2.3;;;;;;;19.39;100;97974.75;;;;
2021/06/30 01:26:05;;;;;;;5.6;1.8;;;;;;;18.98;100;97989.64;;;;
2021/06/30 01:36:06;;;;;;;5.9;2.1;;;;;;;18.71;100;97988.98;;;;
2021/06/30 01:46:05;;;;;;;4.5;1.7;;;;;;;18.48;100;97966.5;;;;
2021/06/30 01:56:05;;;;;;;11.4;1.7;;;;;;;18.36;100;97901.3;;;;
2021/06/30 02:06:05;;;;;;;3.9;1.1;;;;;;;18.1;100;97886.61;;;;
2021/06/30 02:16:04;;;;;;;5.5;2.1;;;;;;;17.64;100;97675.45;;;;
2021/06/30 02:26:04;;;;;;;6.5;1.6;;;;;;;17.72;100;97709.8;;;;
2021/06/30 02:36:04;;;;;;;5.4;2;;;;;;;17.58;100;97736.91;;;;
2021/06/30 02:46:03;;;;;;;1.9;1.2;;;;;;;17.51;100;97707.63;;;;
2021/06/30 02:56:03;;;;;;;11.1;2.2;;;;;;;17.47;100;97686.94;;;;
2021/06/30 03:06:03;;;;;;;4.1;1.3;;;;;;;17.28;100;97678.97;;;;
2021/06/30 03:16:03;;;;;;;3.4;1.9;;;;;;;17.42;100;97700.91;;;;
2021/06/30 03:26:03;;;;;;;4.8;1.6;;;;;;;17.45;100;97691.99;;;;
2021/06/30 03:36:01;;;;;;;6.1;2;;;;;;;17.59;100;97697.61;;;;
2021/06/30 03:46:01;;;;;;;2.7;1.2;;;;;;;17.75;100;97703.59;;;;
2021/06/30 03:56:00;;;;;;;4.7;1.5;;;;;;;18.18;100;97753.05;;;;
2021/06/30 04:06:00;;;;;;;3.2;1.5;;;;;;;18.46;100;97797.71;;;;
2021/06/30 04:15:59;;;;;;;5.4;1.6;;;;;;;18.75;100;97841.6;;;;
2021/06/30 04:25:59;;;;;;;4.4;2.4;;;;;;;19.03;100;97869.9;;;;
2021/06/30 04:35:59;;;;;;;7.4;2.7;;;;;;;19.33;100;97874.39;;;;
2021/06/30 04:45:59;;;;;;;4.1;2.2;;;;;;;19.64;100;97908.55;;;;
2021/06/30 04:55:59;;;;;;;4;1.9;;;;;;;20.03;100;97940.34;;;;
2021/06/30 05:05:59;;;;;;;5.9;2.3;;;;;;;20.35;100;97947.91;;;;
2021/06/30 05:15:59;;;;;;;9.2;2.1;;;;;;;20.44;100;97948.34;;;;
2021/06/30 05:25:59;;;;;;;9;5;;;;;;;20.39;100;97959.65;;;;
2021/06/30 05:35:59;;;;;;;10.2;3.7;;;;;;;20.26;100;97972.09;;;;
2021/06/30 05:45:59;;;;;;;8.4;3.1;;;;;;;20.71;100;97981.63;;;;
2021/06/30 05:55:59;;;;;;;4.4;2;;;;;;;20.72;100;97988.69;;;;
2021/06/30 06:05:59;;;;;;;5.9;2.6;;;;;;;21.37;100;97983.66;;;;
2021/06/30 06:15:59;;;;;;;11.1;3.1;;;;;;;21.61;100;97962.86;;;;
2021/06/30 06:25:59;;;;;;;5.3;3.1;;;;;;;21.7;100;97971.44;;;;
2021/06/30 06:35:59;;;;;;;7.1;2.7;;;;;;;21.7;100;97971.44;;;;
2021/06/30 06:46:00;;;;;;;4.3;1.5;;;;;;;21.34;100;97997.37;;;;
2021/06/30 06:56:02;;;;;;;4;1.7;;;;;;;21.79;100;97982.8;;;;
2021/06/30 07:06:00;;;;;;;8.7;1.6;;;;;;;21.6;100;97975;;;;
2021/06/30 07:16:00;;;;;;;6.8;2.2;;;;;;;21.75;100;97962.83;;;;
2021/06/30 07:26:01;;;;;;;2.9;1.4;;;;;;;21.45;100;97987.18;;;;
2021/06/30 07:36:01;;;;;;;7;1.4;;;;;;;21.59;100;97976.16;;;;
2021/06/30 07:46:01;;;;;;;3.8;0.9;;;;;;;21.62;100;97975.4;;;;
2021/06/30 07:56:02;;;;;;;3.1;1.4;;;;;;;21.97;100;97972.56;;;;
2021/06/30 08:06:04;;;;;;;2.3;1.1;;;;;;;22.11;100;97957.25;;;;
2021/06/30 08:16:04;;;;;;;5.5;1.9;;;;;;;22.33;100;97953.98;;;;
2021/06/30 08:26:04;;;;;;;3.9;1.6;;;;;;;22.59;100;97950.69;;;;
2021/06/30 08:36:04;;;;;;;3.8;1.3;;;;;;;22.68;100;97957.73;;;;
2021/06/30 08:46:04;;;;;;;5.8;1.6;;;;;;;23.11;100;97970;;;;
2021/06/30 08:56:04;;;;;;;4.9;1.4;;;;;;;23.29;100;97956.86;;;;
2021/06/30 09:06:13;;;;;;;8.3;1.9;;;;;;;23.44;100;97946.55;;;;
2021/06/30 09:16:05;;;;;;;5.2;1.9;;;;;;;23.65;100;97946.33;;;;
2021/06/30 09:26:05;;;;;;;2.8;1.3;;;;;;;23.78;100;97947.36;;;;
2021/06/30 09:36:06;;;;;;;3.1;1.3;;;;;;;24.09;100;97950.17;;;;
2021/06/30 09:46:18;;;;;;;3.4;2;;;;;;;24.33;100;97935.33;;;;
2021/06/30 09:56:11;;;;;;;2.4;0.9;;;;;;;24.65;100;97935.64;;;;
2021/06/30 10:06:28;;;;;;;3.4;1.2;;;;;;;24.71;100;97933.22;;;;
2021/06/30 10:16:08;;;;;;;2.7;1.4;;;;;;;24.49;100;97946.52;;;;
2021/06/30 10:26:08;;;;;;;3;1.7;;;;;;;25.03;100;97947.28;;;;
2021/06/30 10:36:09;;;;;;;8.3;2.6;;;;;;;25.26;100;97949.29;;;;
2021/06/30 10:46:25;;;;;;;4.3;1.2;;;;;;;25.52;100;97935.44;;;;
2021/06/30 10:56:11;;;;;;;3.2;1.1;;;;;;;25.77;100;97931.42;;;;
2021/06/30 11:06:13;;;;;;;2.4;1.3;;;;;;;25.76;99.23242;97927.88;;;;
2021/06/30 11:16:12;;;;;;;4.9;1.7;;;;;;;25.64;99.41309;97924.98;;;;
2021/06/30 11:26:13;;;;;;;3.4;1.6;;;;;;;25.87;99.18555;97916.63;;;;
2021/06/30 11:36:13;;;;;;;6.6;2.3;;;;;;;25.29;100;97929.13;;;;
2021/06/30 11:46:14;;;;;;;5.7;2.6;;;;;;;26.02;99.85742;97904.88;;;;
2021/06/30 11:56:15;;;;;;;3.9;2.4;;;;;;;26.14;99.59277;97888.84;;;;
2021/06/30 12:06:16;;;;;;;3.4;2.1;;;;;;;26.5;98.83398;97881.36;;;;
2021/06/30 12:16:16;;;;;;;3.8;2;;;;;;;26.39;100;97870.55;;;;
2021/06/30 12:26:17;;;;;;;8;3;;;;;;;26.76;100;97865.75;;;;
2021/06/30 12:36:21;;;;;;;5.4;2.8;;;;;;;26.74;96.18848;97857.09;;;;
2021/06/30 12:46:21;;;;;;;5.3;2.1;;;;;;;26.89;96.29004;97850.04;;;;
2021/06/30 12:56:23;;;;;;;4;1.9;;;;;;;27.07;93.82324;97857.89;;;;
2021/06/30 13:06:21;;;;;;;2.5;1.1;;;;;;;26.98;92.75781;97845.44;;;;
2021/06/30 13:16:22;;;;;;;3.7;1.4;;;;;;;26.83;91.15332;97832.42;;;;
2021/06/30 13:36:24;;;;;;;3.2;1.4;;;;;;;27.15;92.91895;97834.34;;;;
2021/06/30 13:46:25;;;;;;;3.8;1.5;;;;;;;27.21;91.12402;97833.39;;;;
2021/06/30 13:56:25;;;;;;;4.5;2;;;;;;;27.3;90.1377;97863.2;;;;
2021/06/30 14:06:26;;;;;;;3.9;1.9;;;;;;;27.44;90.17578;97884.95;;;;
2021/06/30 14:16:27;;;;;;;3.5;1.6;;;;;;;27.06;88.5166;97898.59;;;;
2021/06/30 14:26:30;;;;;;;3.3;1.5;;;;;;;27.72;86.78418;97897.27;;;;
2021/06/30 14:36:30;;;;;;;3.6;1.4;;;;;;;27.78;86.67969;97904.6;;;;
2021/06/30 14:46:30;;;;;;;3.7;2.1;;;;;;;28.22;84.54883;97893.88;;;;
2021/06/30 14:56:31;;;;;;;4.6;2.5;;;;;;;28.23;86.34277;97887.88;;;;
2021/06/30 15:06:32;;;;;;;4.7;2.1;;;;;;;29.47;80.78418;97900.53;;;;
2021/06/30 15:16:34;;;;;;;4.5;2.3;;;;;;;31.34;70.84863;97900.91;;;;
2021/06/30 15:26:35;;;;;;;4.3;1.8;;;;;;;31.38;67.4873;97901.51;;;;
2021/06/30 15:36:37;;;;;;;4.6;1.8;;;;;;;31.98;65.67676;97887.73;;;;
2021/06/30 15:46:39;;;;;;;4.1;1.4;;;;;;;32.26;59.56445;97882.89;;;;
2021/06/30 15:56:40;;;;;;;5.9;1.9;;;;;;;32.64;58.61328;97869.13;;;;
2021/06/30 16:06:42;;;;;;;4.1;1.6;;;;;;;32.82;55.85547;97871.05;;;;
2021/06/30 16:16:46;;;;;;;4.8;2.2;;;;;;;33.72;52.81836;97866.87;;;;
2021/06/30 16:26:46;;;;;;;2.4;1.3;;;;;;;34.14;53.34473;97885.43;;;;
2021/06/30 16:36:49;;;;;;;7.3;2.6;;;;;;;34.56;52.79492;97869.08;;;;
2021/06/30 16:46:50;;;;;;;3;1.4;;;;;;;35.53;48.25;97867.86;;;;
2021/06/30 16:56:53;;;;;;;2.9;1.3;;;;;;;35.18;47.86621;97874.33;;;;
2021/06/30 17:06:55;;;;;;;4.8;1.7;;;;;;;35.21;50.1416;97866.97;;;;
2021/06/30 17:16:57;;;;;;;3.2;2;;;;;;;30.16;60.77441;97862.32;;;;
2021/06/30 17:26:59;;;;;;;4;1.7;;;;;;;28.33;67.94531;97855.51;;;;
2021/06/30 17:37:00;;;;;;;9.8;2.7;;;;;;;30.16;62.79883;97867.1;;;;
2021/06/30 17:47:01;;;;;;;5.2;2.7;;;;;;;31.25;60.94238;97873.03;;;;
2021/06/30 17:57:05;;;;;;;3.8;1.7;;;;;;;31.52;60.66992;97906.5;;;;
2021/06/30 18:07:04;;;;;;;5;2.4;;;;;;;29.48;66.22754;97913.2;;;;
2021/06/30 18:17:06;;;;;;;6.3;2.6;;;;;;;26.93;76.33301;97917.11;;;;
2021/06/30 18:27:07;;;;;;;5.9;3.3;;;;;;;25.4;83.70117;97908.45;;;;
2021/06/30 18:37:07;;;;;;;6.6;3.4;;;;;;;24.51;88.87988;97939.38;;;;
2021/06/30 18:47:08;;;;;;;9.3;4.1;;;;;;;23.89;93.58594;97961;;;;
2021/06/30 18:57:09;;;;;;;4.9;2.6;;;;;;;23.19;100;97992.69;;;;
2021/06/30 19:07:11;;;;;;;4.1;2.3;;;;;;;22.8;100;97979.27;;;;
2021/06/30 19:17:10;;;;;;;6.4;4.2;;;;;;;22.29;100;97999.89;;;;
2021/06/30 19:27:10;;;;;;;6.1;4.4;;;;;;;21.76;100;98032.19;;;;
2021/06/30 19:37:10;;;;;;;7.2;3.7;;;;;;;21.44;100;98035.74;;;;
2021/06/30 19:47:10;;;;;;;8.4;4;;;;;;;21.3;100;98019.3;;;;
2021/06/30 19:57:10;;;;;;;5.3;4.1;;;;;;;21.02;100;97997.33;;;;
2021/06/30 20:07:10;;;;;;;5.1;3;;;;;;;20.8;100;97998.45;;;;
2021/06/30 20:17:10;;;;;;;8.6;4;;;;;;;20.61;100;98009.78;;;;
2021/06/30 20:27:10;;;;;;;6.3;4.5;;;;;;;20.41;100;98003.86;;;;
2021/06/30 20:37:10;;;;;;;7.7;4;;;;;;;20.28;100;98005.36;;;;
2021/06/30 20:47:10;;;;;;;10;5.2;;;;;;;20.15;100;97995.89;;;;
2021/06/30 20:57:10;;;;;;;7.5;4.1;;;;;;;20.09;100;98009.17;;;;
2021/06/30 21:07:10;;;;;;;8.2;5;;;;;;;20.04;100;98015.78;;;;
2021/06/30 21:17:12;;;;;;;6.6;4.4;;;;;;;20;100;98012.24;;;;
2021/06/30 21:27:09;;;;;;;8.6;4.5;;;;;;;19.84;100;98019.98;;;;
2021/06/30 21:37:10;;;;;;;6.9;4.2;;;;;;;19.68;100;98021.44;;;;
2021/06/30 21:47:09;;;;;;;7.7;4.7;;;;;;;19.63;100;98038.19;;;;
2021/06/30 21:57:09;;;;;;;7;3.6;;;;;;;19.46;100;98036.91;;;;
2021/06/30 22:07:09;;;;;;;6.1;3.9;;;;;;;19.46;100;98031.44;;;;
2021/06/30 22:17:09;;;;;;;6.6;4.6;;;;;;;19.26;100;98025.41;;;;
2021/06/30 22:27:08;;;;;;;6.9;3.5;;;;;;;19.02;100;98017.78;;;;
2021/06/30 22:37:08;;;;;;;8.1;4;;;;;;;18.85;100;98021.89;;;;
2021/06/30 22:47:08;;;;;;;6.9;3.2;;;;;;;18.8;100;98016.78;;;;
2021/06/30 22:57:07;;;;;;;5.8;4.2;;;;;;;18.52;100;98014.54;;;;
2021/06/30 23:07:07;;;;;;;5.3;3.4;;;;;;;18.39;100;97998.77;;;;
2021/06/30 23:17:07;;;;;;;6.7;4;;;;;;;18.18;100;98003.97;;;;
2021/06/30 23:27:06;;;;;;;8.7;4.4;;;;;;;18.02;100;97987.78;;;;
2021/06/30 23:37:06;;;;;;;6.6;4.1;;;;;;;17.9;100;97980.65;;;;
2021/06/30 23:47:05;;;;;;;6.1;4.4;;;;;;;17.79;100;97982.44;;;;
2021/06/30 23:57:05;;;;;;;5.7;3.7;;;;;;;17.67;100;97955.4;;;;
